createdAt,value
2022-12-28T00:02:01.790Z,75.46
2022-12-28T00:04:34.187Z,75.42
2022-12-28T00:07:06.567Z,75.57
2022-12-28T00:09:39.086Z,75.42
2022-12-28T00:12:11.708Z,75.53
2022-12-28T00:14:46.098Z,75.29
2022-12-28T00:17:18.894Z,75.42
2022-12-28T00:19:51.369Z,75.47
2022-12-28T00:22:23.928Z,75.31
2022-12-28T00:24:56.320Z,75.30
2022-12-28T00:27:28.669Z,75.46
2022-12-28T00:30:01.045Z,75.33
2022-12-28T00:32:34.418Z,75.36
2022-12-28T00:35:07.907Z,75.49
2022-12-28T00:37:40.386Z,75.51
2022-12-28T00:40:18.924Z,75.38
2022-12-28T00:42:54.604Z,75.38
2022-12-28T00:45:26.999Z,75.44
2022-12-28T00:47:59.401Z,75.35
2022-12-28T00:50:31.954Z,75.14
2022-12-28T00:53:04.582Z,75.11
2022-12-28T00:55:37.528Z,75.28
2022-12-28T00:58:11.714Z,75.12
2022-12-28T01:00:44.212Z,75.31
2022-12-28T01:03:16.653Z,75.28
2022-12-28T01:05:49.238Z,75.16
2022-12-28T01:08:21.739Z,75.19
2022-12-28T01:10:54.065Z,75.24
2022-12-28T01:13:26.486Z,75.33
2022-12-28T01:15:58.857Z,75.17
2022-12-28T01:18:31.717Z,75.25
2022-12-28T01:21:11.539Z,75.49
2022-12-28T01:23:44.321Z,75.18
2022-12-28T01:26:17.264Z,75.30
2022-12-28T01:28:50.783Z,75.18
2022-12-28T01:31:23.868Z,75.29
2022-12-28T01:33:56.561Z,74.99
2022-12-28T01:36:35.043Z,75.25
2022-12-28T01:39:08.222Z,75.34
2022-12-28T01:41:42.865Z,75.35
2022-12-28T01:44:51.342Z,75.26
2022-12-28T01:47:28.263Z,75.13
2022-12-28T01:50:08.904Z,75.54
2022-12-28T01:52:44.769Z,75.40
2022-12-28T01:55:20.079Z,75.18
2022-12-28T01:57:57.084Z,75.39
2022-12-28T02:00:30.354Z,75.26
2022-12-28T02:03:07.278Z,75.21
2022-12-28T02:05:42.793Z,75.20
2022-12-28T02:08:23.474Z,75.34
2022-12-28T02:10:57.314Z,75.31
2022-12-28T02:13:30.061Z,74.99
2022-12-28T02:16:02.958Z,75.14
2022-12-28T02:18:35.565Z,75.08
2022-12-28T02:21:25.131Z,75.30
2022-12-28T02:24:17.757Z,75.25
2022-12-28T02:27:01.988Z,75.18
2022-12-28T02:29:55.328Z,75.12
2022-12-28T02:32:41.695Z,75.27
2022-12-28T02:35:18.777Z,75.26
2022-12-28T02:37:54.923Z,75.52
2022-12-28T02:40:34.121Z,75.47
2022-12-28T02:43:07.011Z,75.43
2022-12-28T02:45:59.467Z,75.54
2022-12-28T02:48:59.756Z,75.38
2022-12-28T02:51:49.045Z,75.28
2022-12-28T02:55:18.867Z,75.57
2022-12-28T02:58:16.045Z,75.61
2022-12-28T03:01:01.376Z,75.79
2022-12-28T03:03:40.839Z,75.74
2022-12-28T03:06:39.602Z,75.77
2022-12-28T03:09:18.915Z,75.86
2022-12-28T03:12:01.987Z,75.71
2022-12-28T03:14:42.193Z,75.77
2022-12-28T03:17:33.212Z,75.77
2022-12-28T03:20:27.617Z,75.69
2022-12-28T03:23:23.263Z,75.82
2022-12-28T03:26:16.154Z,75.75
2022-12-28T03:29:09.255Z,76.13
2022-12-28T03:31:44.771Z,76.23
2022-12-28T03:34:18.836Z,75.77
2022-12-28T03:37:00.581Z,75.90
2022-12-28T03:39:46.416Z,75.84
2022-12-28T03:42:44.652Z,75.93
2022-12-28T03:45:45.384Z,76.19
2022-12-28T03:48:16.532Z,75.83
2022-12-28T03:50:51.667Z,75.99
2022-12-28T03:53:25.627Z,75.99
2022-12-28T03:56:11.041Z,76.05
2022-12-28T03:58:43.917Z,75.98
2022-12-28T04:01:16.902Z,76.18
2022-12-28T04:03:49.789Z,76.06
2022-12-28T04:06:22.908Z,76.29
2022-12-28T04:08:55.277Z,75.75
2022-12-28T04:11:33.463Z,76.04
2022-12-28T04:14:10.896Z,75.90
2022-12-28T04:16:45.478Z,75.78
2022-12-28T04:19:20.589Z,75.83
2022-12-28T04:21:53.331Z,75.84
2022-12-28T04:24:25.950Z,75.76
2022-12-28T04:26:59.244Z,75.96
2022-12-28T04:29:31.646Z,75.89
2022-12-28T04:32:13.027Z,75.99
2022-12-28T04:34:48.741Z,75.98
2022-12-28T04:37:22.740Z,75.87
2022-12-28T04:39:57.296Z,76.17
2022-12-28T04:42:29.978Z,75.86
2022-12-28T04:45:02.319Z,76.13
2022-12-28T04:47:34.644Z,76.23
2022-12-28T04:50:07.728Z,76.11
2022-12-28T04:52:40.036Z,76.14
2022-12-28T04:55:32.903Z,75.81
2022-12-28T04:58:07.017Z,75.78
2022-12-28T05:00:39.506Z,75.76
2022-12-28T05:03:11.890Z,75.98
2022-12-28T05:05:45.249Z,75.90
2022-12-28T05:08:17.635Z,76.05
2022-12-28T05:10:49.960Z,75.82
2022-12-28T05:13:22.310Z,75.90
2022-12-28T05:15:54.836Z,75.89
2022-12-28T05:18:27.284Z,75.90
2022-12-28T05:21:04.033Z,75.88
2022-12-28T05:23:38.468Z,75.87
2022-12-28T05:26:14.807Z,75.92
2022-12-28T05:28:47.328Z,75.80
2022-12-28T05:31:23.422Z,75.86
2022-12-28T05:33:56.393Z,75.82
2022-12-28T05:36:30.099Z,75.90
2022-12-28T05:39:02.598Z,75.94
2022-12-28T05:41:35.012Z,75.83
2022-12-28T05:44:07.891Z,75.89
2022-12-28T05:46:40.307Z,75.98
2022-12-28T05:49:12.661Z,75.86
2022-12-28T05:51:45.027Z,75.97
2022-12-28T05:54:17.401Z,76.08
2022-12-28T05:56:53.183Z,76.26
2022-12-28T05:59:25.499Z,76.11
2022-12-28T06:01:58.026Z,76.12
2022-12-28T06:04:30.533Z,76.17
2022-12-28T06:07:03.038Z,75.89
2022-12-28T06:09:35.686Z,75.95
2022-12-28T06:12:10.134Z,76.02
2022-12-28T06:14:42.555Z,76.01
2022-12-28T06:17:14.884Z,76.06
2022-12-28T06:19:47.303Z,75.97
2022-12-28T06:22:19.649Z,76.06
2022-12-28T06:24:52.053Z,75.93
2022-12-28T06:27:24.420Z,76.30
2022-12-28T06:29:56.765Z,76.08
2022-12-28T06:32:29.152Z,76.05
2022-12-28T06:35:02.717Z,76.11
2022-12-28T06:37:35.090Z,75.69
2022-12-28T06:40:08.796Z,75.98
2022-12-28T06:42:41.140Z,76.03
2022-12-28T06:45:13.943Z,75.98
2022-12-28T06:47:46.279Z,75.89
2022-12-28T06:50:18.746Z,76.04
2022-12-28T06:52:51.119Z,76.25
2022-12-28T06:55:23.493Z,76.08
2022-12-28T06:57:56.455Z,76.32
2022-12-28T07:00:28.904Z,76.02
2022-12-28T07:03:01.569Z,76.11
2022-12-28T07:05:35.867Z,76.19
2022-12-28T07:08:12.485Z,76.17
2022-12-28T07:10:45.442Z,76.28
2022-12-28T07:13:18.559Z,76.17
2022-12-28T07:15:53.176Z,76.24
2022-12-28T07:18:25.561Z,76.28
2022-12-28T07:21:03.610Z,76.33
2022-12-28T07:23:36.057Z,76.18
2022-12-28T07:26:11.142Z,76.46
2022-12-28T07:28:45.637Z,76.25
2022-12-28T07:31:20.301Z,76.45
2022-12-28T07:33:55.673Z,76.34
2022-12-28T07:36:30.238Z,76.49
2022-12-28T07:39:03.247Z,76.37
2022-12-28T07:41:37.286Z,76.28
2022-12-28T07:44:11.079Z,76.54
2022-12-28T07:46:43.438Z,76.47
2022-12-28T07:49:15.790Z,76.38
2022-12-28T07:51:49.161Z,76.40
2022-12-28T07:54:21.606Z,76.47
2022-12-28T07:56:54.084Z,76.56
2022-12-28T07:59:30.939Z,76.45
2022-12-28T08:02:03.832Z,76.54
2022-12-28T08:04:36.258Z,76.76
2022-12-28T08:07:08.619Z,76.64
2022-12-28T08:09:40.914Z,76.74
2022-12-28T08:12:13.235Z,76.47
2022-12-28T08:14:45.629Z,76.53
2022-12-28T08:17:21.245Z,76.59
2022-12-28T08:19:55.597Z,76.61
2022-12-28T08:22:28.205Z,76.99
2022-12-28T08:25:00.555Z,76.50
2022-12-28T08:27:38.326Z,76.84
2022-12-28T08:30:14.937Z,76.61
2022-12-28T08:32:47.289Z,76.78
2022-12-28T08:35:19.774Z,76.49
2022-12-28T08:37:52.172Z,76.70
2022-12-28T08:40:29.933Z,76.74
2022-12-28T08:43:02.775Z,76.83
2022-12-28T08:45:35.128Z,76.78
2022-12-28T08:48:08.320Z,76.88
2022-12-28T08:50:40.645Z,76.41
2022-12-28T08:53:13.248Z,77.03
2022-12-28T08:55:45.670Z,76.72
2022-12-28T08:58:18.017Z,76.93
2022-12-28T09:00:50.336Z,76.78
2022-12-28T09:03:22.746Z,76.82
2022-12-28T09:05:55.162Z,76.89
2022-12-28T09:08:27.561Z,76.80
2022-12-28T09:11:03.900Z,76.86
2022-12-28T09:13:37.250Z,76.84
2022-12-28T09:16:12.078Z,76.89
2022-12-28T09:18:45.983Z,76.80
2022-12-28T09:21:21.099Z,77.16
2022-12-28T09:23:53.549Z,77.01
2022-12-28T09:26:28.283Z,76.91
2022-12-28T09:29:02.443Z,76.99
2022-12-28T09:31:37.416Z,76.75
2022-12-28T09:37:02.011Z,76.96
2022-12-28T09:39:34.458Z,76.76
2022-12-28T09:42:13.160Z,76.73
2022-12-28T09:44:56.106Z,76.80
2022-12-28T09:47:34.986Z,76.94
2022-12-28T09:50:30.381Z,76.86
2022-12-28T09:53:36.587Z,76.84
2022-12-28T09:56:24.371Z,76.82
2022-12-28T09:58:58.175Z,76.77
2022-12-28T10:01:30.790Z,76.88
2022-12-28T10:04:04.228Z,76.65
2022-12-28T10:06:38.248Z,76.68
2022-12-28T10:09:23.518Z,76.73
2022-12-28T10:11:56.579Z,76.46
2022-12-28T10:14:33.534Z,76.44
2022-12-28T10:17:07.839Z,76.66
2022-12-28T10:19:40.394Z,76.68
2022-12-28T10:22:17.311Z,76.62
2022-12-28T10:24:50.094Z,76.73
2022-12-28T10:27:25.027Z,76.61
2022-12-28T10:30:00.497Z,76.38
2022-12-28T10:32:51.841Z,76.73
2022-12-28T10:35:29.869Z,76.69
2022-12-28T10:38:07.613Z,76.78
2022-12-28T10:40:41.209Z,76.76
2022-12-28T10:43:21.300Z,76.77
2022-12-28T10:45:54.240Z,76.60
2022-12-28T10:48:30.583Z,76.79
2022-12-28T10:51:12.935Z,76.66
2022-12-28T10:53:48.249Z,76.73
2022-12-28T10:56:28.602Z,76.59
2022-12-28T10:59:24.565Z,77.01
2022-12-28T11:02:14.911Z,76.90
2022-12-28T11:05:00.669Z,76.75
2022-12-28T11:07:36.369Z,76.53
2022-12-28T11:10:28.994Z,76.73
2022-12-28T11:13:02.748Z,76.74
2022-12-28T11:15:35.994Z,76.64
2022-12-28T11:18:17.769Z,76.19
2022-12-28T11:20:52.564Z,76.68
2022-12-28T11:23:31.610Z,76.83
2022-12-28T11:26:04.380Z,76.41
2022-12-28T11:28:36.724Z,76.75
2022-12-28T11:31:15.738Z,76.82
2022-12-28T11:33:50.023Z,76.60
2022-12-28T11:36:25.336Z,76.48
2022-12-28T11:38:58.733Z,76.63
2022-12-28T11:42:19.383Z,76.40
2022-12-28T11:44:56.931Z,76.66
2022-12-28T11:47:34.244Z,76.54
2022-12-28T11:50:50.887Z,76.24
2022-12-28T11:53:45.527Z,76.43
2022-12-28T11:56:19.437Z,76.58
2022-12-28T11:59:05.085Z,76.43
2022-12-28T12:01:52.291Z,76.43
2022-12-28T12:04:33.356Z,76.49
2022-12-28T12:07:45.896Z,76.54
2022-12-28T12:10:30.941Z,76.74
2022-12-28T12:13:20.538Z,76.35
2022-12-28T12:15:56.185Z,76.29
2022-12-28T12:18:31.198Z,76.52
2022-12-28T12:21:13.292Z,76.53
2022-12-28T12:23:53.193Z,76.53
2022-12-28T12:26:34.831Z,76.64
2022-12-28T12:29:16.213Z,76.52
2022-12-28T12:31:52.507Z,76.41
2022-12-28T12:34:29.750Z,76.27
2022-12-28T12:37:29.045Z,76.47
2022-12-28T12:40:25.614Z,76.32
2022-12-28T12:43:15.573Z,76.16
2022-12-28T12:45:57.454Z,76.17
2022-12-28T12:48:55.647Z,76.69
2022-12-28T12:51:33.529Z,76.41
2022-12-28T12:54:23.337Z,76.36
2022-12-28T12:56:59.801Z,76.36
2022-12-28T12:59:50.459Z,76.30
2022-12-28T13:02:58.280Z,76.03
2022-12-28T13:05:32.918Z,75.88
2022-12-28T13:08:06.743Z,76.21
2022-12-28T13:10:44.696Z,75.72
2022-12-28T13:13:25.592Z,76.16
2022-12-28T13:16:03.456Z,76.34
2022-12-28T13:18:45.019Z,75.87
2022-12-28T13:21:22.346Z,75.98
2022-12-28T13:23:55.496Z,76.15
2022-12-28T13:26:30.536Z,75.90
2022-12-28T13:29:04.847Z,75.68
2022-12-28T13:31:39.877Z,76.22
2022-12-28T13:34:20.776Z,76.21
2022-12-28T13:36:56.717Z,76.07
2022-12-28T13:39:33.053Z,76.12
2022-12-28T13:42:15.363Z,76.25
2022-12-28T13:44:50.981Z,76.39
2022-12-28T13:47:27.640Z,76.58
2022-12-28T13:50:04.711Z,76.42
2022-12-28T13:52:42.946Z,76.65
2022-12-28T13:55:18.752Z,76.58
2022-12-28T13:57:59.724Z,76.56
2022-12-28T14:00:35.223Z,76.52
2022-12-28T14:03:07.726Z,76.71
2022-12-28T14:05:43.543Z,76.68
2022-12-28T14:08:17.025Z,76.89
2022-12-28T14:10:51.537Z,76.58
2022-12-28T14:13:25.190Z,76.55
2022-12-28T14:15:57.798Z,76.72
2022-12-28T14:18:31.563Z,76.54
2022-12-28T14:21:06.407Z,76.68
2022-12-28T14:23:40.560Z,76.79
2022-12-28T14:26:22.337Z,76.67
2022-12-28T14:28:56.361Z,76.85
2022-12-28T14:31:30.942Z,76.78
2022-12-28T14:34:05.895Z,76.75
2022-12-28T14:36:43.414Z,77.00
2022-12-28T14:39:27.621Z,76.75
2022-12-28T14:42:00.729Z,76.82
2022-12-28T14:44:34.766Z,76.75
2022-12-28T14:47:37.066Z,76.82
2022-12-28T14:50:22.418Z,76.86
2022-12-28T14:53:08.835Z,76.80
2022-12-28T14:55:55.196Z,76.90
2022-12-28T14:58:31.654Z,76.89
2022-12-28T15:01:07.329Z,76.92
2022-12-28T15:03:54.179Z,76.82
2022-12-28T15:06:30.498Z,76.89
2022-12-28T15:09:06.519Z,76.90
2022-12-28T15:11:39.062Z,76.80
2022-12-28T15:14:11.509Z,76.77
2022-12-28T15:16:43.963Z,77.04
2022-12-28T15:19:16.402Z,77.05
2022-12-28T15:21:48.982Z,77.12
2022-12-28T15:24:23.703Z,77.26
2022-12-28T15:26:57.596Z,77.33
2022-12-28T15:32:22.485Z,77.38
2022-12-28T15:34:54.867Z,77.30
2022-12-28T15:37:27.203Z,77.41
2022-12-28T15:39:59.707Z,77.24
2022-12-28T15:42:38.134Z,77.43
2022-12-28T15:45:13.478Z,77.45
2022-12-28T15:47:45.890Z,77.76
2022-12-28T15:50:18.561Z,77.35
2022-12-28T15:52:50.993Z,77.36
2022-12-28T15:55:23.343Z,77.55
2022-12-28T15:57:55.698Z,77.36
2022-12-28T16:00:28.087Z,77.53
2022-12-28T16:03:00.541Z,77.43
2022-12-28T16:05:33.684Z,77.28
2022-12-28T16:08:06.360Z,77.75
2022-12-28T16:10:38.681Z,77.59
2022-12-28T16:13:11.091Z,77.50
2022-12-28T16:15:43.457Z,77.74
2022-12-28T16:18:15.851Z,77.84
2022-12-28T16:20:49.068Z,77.75
2022-12-28T16:23:21.442Z,77.53
2022-12-28T16:25:54.044Z,77.84
2022-12-28T16:28:26.449Z,77.78
2022-12-28T16:30:59.639Z,77.65
2022-12-28T16:33:32.318Z,77.76
2022-12-28T16:36:12.047Z,77.82
2022-12-28T16:38:44.487Z,77.96
2022-12-28T16:41:18.146Z,77.64
2022-12-28T16:43:51.428Z,77.85
2022-12-28T16:46:23.867Z,77.61
2022-12-28T16:48:56.323Z,77.98
2022-12-28T16:51:28.841Z,77.73
2022-12-28T16:54:01.232Z,77.77
2022-12-28T16:56:33.633Z,77.73
2022-12-28T16:59:05.952Z,77.79
2022-12-28T17:01:38.551Z,77.85
2022-12-28T17:04:11.265Z,77.78
2022-12-28T17:06:46.591Z,77.85
2022-12-28T17:09:19.712Z,77.95
2022-12-28T17:11:52.705Z,78.09
2022-12-28T17:14:37.077Z,78.12
2022-12-28T17:17:10.242Z,78.19
2022-12-28T17:19:42.494Z,78.34
2022-12-28T17:22:14.976Z,78.21
2022-12-28T17:24:47.378Z,78.40
2022-12-28T17:27:20.051Z,78.36
2022-12-28T17:29:52.459Z,78.49
2022-12-28T17:32:24.856Z,78.61
2022-12-28T17:34:57.327Z,78.47
2022-12-28T17:37:29.821Z,78.53
2022-12-28T17:40:02.206Z,78.69
2022-12-28T17:42:34.573Z,78.64
2022-12-28T17:45:11.743Z,78.61
2022-12-28T17:47:44.617Z,78.65
2022-12-28T17:50:18.234Z,78.48
2022-12-28T17:52:50.525Z,78.52
2022-12-28T17:55:22.843Z,78.37
2022-12-28T17:57:55.469Z,78.73
2022-12-28T18:00:27.863Z,78.75
2022-12-28T18:03:00.790Z,78.44
2022-12-28T18:05:35.300Z,78.62
2022-12-28T18:08:08.057Z,78.54
2022-12-28T18:10:40.509Z,78.82
2022-12-28T18:13:13.371Z,78.50
2022-12-28T18:15:47.177Z,78.84
2022-12-28T18:18:20.419Z,78.84
2022-12-28T18:21:00.786Z,78.92
2022-12-28T18:23:34.431Z,78.82
2022-12-28T18:26:08.800Z,79.06
2022-12-28T18:28:41.311Z,79.06
2022-12-28T18:31:13.947Z,79.20
2022-12-28T18:54:30.938Z,80.16
2022-12-28T18:57:03.310Z,80.02
2022-12-28T18:59:35.767Z,79.80
2022-12-28T19:02:15.938Z,80.09
2022-12-28T19:04:52.990Z,80.44
2022-12-28T19:07:25.683Z,80.77
2022-12-28T19:10:14.061Z,80.91
2022-12-28T19:12:47.041Z,81.13
2022-12-28T19:15:19.826Z,81.20
2022-12-28T19:17:52.198Z,80.86
2022-12-28T19:20:24.828Z,80.83
2022-12-28T19:22:57.225Z,80.82
2022-12-28T19:25:29.625Z,80.92
2022-12-28T19:28:02.051Z,80.78
2022-12-28T19:30:34.446Z,80.96
2022-12-28T19:33:06.952Z,81.07
2022-12-28T19:35:39.320Z,81.34
2022-12-28T19:38:11.618Z,81.59
2022-12-28T19:40:43.941Z,81.00
2022-12-28T19:43:16.212Z,82.20
2022-12-28T19:45:48.671Z,81.86
2022-12-28T19:48:21.034Z,81.74
2022-12-28T19:50:53.332Z,82.38
2022-12-28T19:53:25.681Z,82.04
2022-12-28T19:56:04.612Z,82.37
2022-12-28T19:58:39.183Z,81.81
2022-12-28T20:01:13.502Z,81.50
2022-12-28T20:03:46.858Z,81.26
2022-12-28T20:06:22.346Z,82.25
2022-12-28T20:08:56.529Z,82.19
2022-12-28T20:11:29.706Z,82.12
2022-12-28T20:14:03.660Z,81.68
2022-12-28T20:16:37.414Z,81.69
2022-12-28T20:19:11.043Z,81.70
2022-12-28T20:21:43.565Z,82.21
2022-12-28T20:24:17.586Z,82.96
2022-12-28T20:26:50.096Z,82.66
2022-12-28T20:29:22.372Z,81.89
2022-12-28T20:31:55.166Z,81.94
2022-12-28T20:34:27.702Z,82.60
2022-12-28T20:37:00.186Z,82.40
2022-12-28T20:39:32.583Z,82.92
2022-12-28T20:42:22.881Z,83.07
2022-12-28T20:44:57.658Z,83.57
2022-12-28T20:47:30.079Z,82.91
2022-12-28T20:50:04.045Z,83.44
2022-12-28T20:52:36.362Z,83.97
2022-12-28T20:55:09.651Z,83.20
2022-12-28T20:57:41.981Z,82.56
2022-12-28T21:00:16.343Z,82.91
2022-12-28T21:02:49.309Z,83.39
2022-12-28T21:05:21.757Z,83.19
2022-12-28T21:07:54.229Z,83.64
2022-12-28T21:10:26.770Z,83.46
2022-12-28T21:12:59.425Z,83.65
2022-12-28T21:15:31.876Z,83.54
2022-12-28T21:18:04.535Z,84.09
2022-12-28T21:20:39.192Z,83.63
2022-12-28T21:23:11.855Z,83.43
2022-12-28T21:25:44.248Z,83.70
2022-12-28T21:28:16.763Z,84.06
2022-12-28T21:30:55.938Z,83.72
2022-12-28T21:33:28.386Z,84.35
2022-12-28T21:36:02.811Z,84.28
2022-12-28T21:38:37.896Z,84.07
2022-12-28T21:41:09.856Z,84.37
2022-12-28T21:43:42.745Z,84.03
2022-12-28T21:46:16.084Z,84.07
2022-12-28T21:48:48.565Z,83.84
2022-12-28T21:51:35.331Z,83.92
2022-12-28T21:54:11.384Z,83.86
2022-12-28T21:56:45.469Z,83.88
2022-12-28T21:59:17.846Z,83.93
2022-12-28T22:02:07.903Z,84.18
2022-12-28T22:05:02.437Z,83.80
2022-12-28T22:07:37.305Z,83.96
2022-12-28T22:10:28.119Z,83.99
2022-12-28T22:13:00.537Z,84.09
2022-12-28T22:15:50.863Z,84.08
2022-12-28T22:18:52.656Z,84.08
2022-12-28T22:21:17.437Z,84.43
2022-12-28T22:23:49.862Z,84.22
2022-12-28T22:26:22.340Z,84.20
2022-12-28T22:28:54.613Z,84.15
2022-12-28T22:31:26.940Z,84.29
2022-12-28T22:34:03.371Z,84.11
2022-12-28T22:36:39.075Z,84.13
2022-12-28T22:39:11.342Z,84.11
2022-12-28T22:41:43.690Z,84.24
2022-12-28T22:44:16.031Z,84.18
2022-12-28T22:46:48.463Z,84.06
2022-12-28T22:49:21.085Z,84.16
2022-12-28T22:51:53.444Z,84.35
2022-12-28T22:54:26.028Z,84.16
2022-12-28T22:56:58.327Z,84.18
2022-12-28T22:59:30.787Z,84.09
2022-12-28T23:02:03.254Z,84.27
2022-12-28T23:04:35.923Z,84.23
2022-12-28T23:07:08.367Z,84.22
2022-12-28T23:09:40.740Z,84.34
2022-12-28T23:12:13.067Z,84.22
2022-12-28T23:15:03.079Z,84.20
2022-12-28T23:17:35.453Z,84.21
2022-12-28T23:20:26.611Z,84.09
2022-12-28T23:23:17.008Z,84.15
2022-12-28T23:26:07.456Z,84.16
2022-12-28T23:28:39.756Z,84.11
2022-12-28T23:31:11.990Z,84.16
2022-12-28T23:33:44.342Z,84.13
2022-12-28T23:36:16.672Z,84.02
2022-12-28T23:38:50.686Z,84.13
2022-12-28T23:41:40.637Z,83.96
2022-12-28T23:44:12.933Z,84.10
2022-12-28T23:46:45.646Z,84.07
2022-12-28T23:49:18.933Z,83.99
2022-12-28T23:51:51.558Z,84.05
2022-12-28T23:54:24.012Z,84.01
2022-12-28T23:56:56.358Z,83.86
2022-12-28T23:59:28.712Z,83.75
